createdAt,value
2019-06-10T00:02:23.921Z,70
2019-06-10T00:04:57.303Z,70
2019-06-10T00:07:31.987Z,70
2019-06-10T00:10:07.687Z,70
2019-06-10T00:12:42.734Z,70
2019-06-10T00:15:15.534Z,69
2019-06-10T00:18:33.802Z,69
2019-06-10T00:20:30.921Z,69
2019-06-10T00:23:08.116Z,69
2019-06-10T00:25:42.195Z,70
2019-06-10T00:28:14.602Z,70
2019-06-10T00:30:46.986Z,70
2019-06-10T00:33:21.944Z,70
2019-06-10T00:35:54.373Z,70
2019-06-10T00:38:26.943Z,70
2019-06-10T00:41:07.286Z,70
2019-06-10T00:43:41.560Z,70
2019-06-10T00:46:14.343Z,70
2019-06-10T00:48:46.887Z,70
2019-06-10T00:51:21.392Z,70
2019-06-10T00:53:54.039Z,70
2019-06-10T00:56:26.328Z,70
2019-06-10T00:59:05.715Z,70
2019-06-10T01:01:41.797Z,70
2019-06-10T01:04:16.816Z,70
2019-06-10T01:06:51.913Z,70
2019-06-10T01:09:24.455Z,70
2019-06-10T01:11:56.821Z,70
2019-06-10T01:14:29.321Z,71
2019-06-10T01:17:04.275Z,71
2019-06-10T01:19:37.727Z,71
2019-06-10T01:22:15.541Z,71
2019-06-10T01:24:51.486Z,71
2019-06-10T01:27:23.805Z,71
2019-06-10T01:29:56.248Z,71
2019-06-10T01:31:26.008Z,71
2019-06-10T01:34:01.136Z,71
2019-06-10T01:36:35.084Z,71
2019-06-10T01:39:15.106Z,71
2019-06-10T01:41:51.725Z,71
2019-06-10T01:44:25.525Z,71
2019-06-10T01:47:01.438Z,71
2019-06-10T01:49:35.240Z,71
2019-06-10T01:52:14.807Z,71
2019-06-10T01:54:52.082Z,71
2019-06-10T01:57:26.201Z,71
2019-06-10T02:00:12.481Z,71
2019-06-10T02:02:45.504Z,71
2019-06-10T02:05:23.257Z,71
2019-06-10T02:07:57.139Z,71
2019-06-10T02:10:31.479Z,71
2019-06-10T02:13:05.542Z,72
2019-06-10T02:15:41.434Z,72
2019-06-10T02:18:17.866Z,72
2019-06-10T02:20:52.030Z,72
2019-06-10T02:23:26.078Z,72
2019-06-10T02:26:02.364Z,72
2019-06-10T02:28:34.880Z,72
2019-06-10T02:31:07.100Z,72
2019-06-10T02:33:42.416Z,72
2019-06-10T02:36:31.003Z,72
2019-06-10T02:38:56.294Z,72
2019-06-10T02:41:36.596Z,72
2019-06-10T02:44:09.352Z,72
2019-06-10T02:46:44.372Z,73
2019-06-10T02:49:56.639Z,73
2019-06-10T02:51:57.929Z,74
2019-06-10T02:54:36.211Z,74
2019-06-10T02:57:08.496Z,75
2019-06-10T02:59:43.942Z,75
2019-06-10T03:02:22.347Z,75
2019-06-10T03:04:57.302Z,75
2019-06-10T03:07:35.915Z,75
2019-06-10T03:10:08.554Z,75
2019-06-10T03:12:42.760Z,76
2019-06-10T03:15:16.135Z,76
2019-06-10T03:17:52.442Z,76
2019-06-10T03:20:26.281Z,76
2019-06-10T03:22:59.037Z,77
2019-06-10T03:25:33.169Z,77
2019-06-10T03:28:04.923Z,76
2019-06-10T03:31:47.182Z,76
2019-06-10T03:34:08.838Z,76
2019-06-10T03:36:43.352Z,76
2019-06-10T03:39:18.991Z,76
2019-06-10T03:41:55.213Z,76
2019-06-10T03:44:29.011Z,76
2019-06-10T03:47:03.289Z,75
2019-06-10T03:49:56.421Z,75
2019-06-10T03:52:21.821Z,75
2019-06-10T03:55:03.510Z,75
2019-06-10T03:57:37.462Z,74
2019-06-10T04:00:14.475Z,74
2019-06-10T04:02:48.313Z,74
2019-06-10T04:05:28.819Z,74
2019-06-10T04:08:03.789Z,74
2019-06-10T04:10:38.932Z,74
2019-06-10T04:13:13.630Z,74
2019-06-10T04:15:47.425Z,74
2019-06-10T04:18:29.429Z,74
2019-06-10T04:21:03.531Z,74
2019-06-10T04:23:37.447Z,74
2019-06-10T04:26:13.230Z,74
2019-06-10T04:28:47.219Z,74
2019-06-10T04:31:26.560Z,74
2019-06-10T04:34:03.649Z,74
2019-06-10T04:36:37.486Z,75
2019-06-10T04:39:12.986Z,75
2019-06-10T04:41:47.355Z,75
2019-06-10T04:44:27.780Z,75
2019-06-10T04:47:03.331Z,75
2019-06-10T04:49:37.296Z,75
2019-06-10T04:52:12.644Z,76
2019-06-10T04:54:46.490Z,76
2019-06-10T04:57:26.491Z,76
2019-06-10T05:00:14.787Z,76
2019-06-10T05:02:45.514Z,76
2019-06-10T05:05:19.561Z,76
2019-06-10T05:07:59.072Z,76
2019-06-10T05:10:33.635Z,76
2019-06-10T05:13:07.420Z,76
2019-06-10T05:15:43.775Z,76
2019-06-10T05:18:21.879Z,75
2019-06-10T05:21:03.375Z,75
2019-06-10T05:23:37.218Z,75
2019-06-10T05:26:13.721Z,75
2019-06-10T05:28:47.668Z,75
2019-06-10T05:31:34.638Z,75
2019-06-10T05:34:08.712Z,75
2019-06-10T05:36:44.132Z,74
2019-06-10T05:39:18.091Z,74
2019-06-10T05:41:53.523Z,74
2019-06-10T05:44:30.103Z,74
2019-06-10T05:47:07.907Z,74
2019-06-10T05:49:43.495Z,74
2019-06-10T05:52:17.648Z,73
2019-06-10T05:54:52.615Z,73
2019-06-10T05:57:27.749Z,72
2019-06-10T06:00:15.257Z,72
2019-06-10T06:02:45.556Z,72
2019-06-10T06:05:19.551Z,72
2019-06-10T06:08:09.173Z,72
2019-06-10T06:10:38.416Z,72
2019-06-10T06:13:13.143Z,72
2019-06-10T06:15:47.537Z,72
2019-06-10T06:18:22.985Z,72
2019-06-10T06:20:56.729Z,71
2019-06-10T06:23:37.911Z,71
2019-06-10T06:26:17.022Z,71
2019-06-10T06:28:53.878Z,71
2019-06-10T06:31:28.508Z,71
2019-06-10T06:34:04.034Z,71
2019-06-10T06:36:38.594Z,70
2019-06-10T06:39:13.340Z,70
2019-06-10T06:41:45.602Z,70
2019-06-10T06:44:18.051Z,70
2019-06-10T06:46:53.394Z,69
2019-06-10T06:49:25.938Z,69
2019-06-10T06:52:03.033Z,69
2019-06-10T06:54:39.564Z,69
2019-06-10T06:57:14.380Z,69
2019-06-10T06:59:47.085Z,69
2019-06-10T07:02:19.899Z,69
2019-06-10T07:04:55.038Z,69
2019-06-10T07:07:27.352Z,69
2019-06-10T07:09:59.808Z,69
2019-06-10T07:12:37.891Z,69
2019-06-10T07:15:12.568Z,69
2019-06-10T07:17:46.216Z,69
2019-06-10T07:20:18.529Z,69
2019-06-10T07:22:53.624Z,69
2019-06-10T07:25:26.193Z,69
2019-06-10T07:27:58.465Z,69
2019-06-10T07:31:28.443Z,69
2019-06-10T07:34:03.104Z,69
2019-06-10T07:36:38.640Z,69
2019-06-10T07:39:13.822Z,69
2019-06-10T07:41:48.574Z,70
2019-06-10T07:44:23.131Z,70
2019-06-10T07:46:57.085Z,72
2019-06-10T07:49:35.369Z,73
2019-06-10T07:52:21.240Z,73
2019-06-10T07:54:53.501Z,73
2019-06-10T07:57:27.502Z,72
2019-06-10T08:00:03.551Z,71
2019-06-10T08:02:37.976Z,71
2019-06-10T08:05:13.340Z,71
2019-06-10T08:07:49.164Z,71
2019-06-10T08:10:23.666Z,70
2019-06-10T08:12:56.257Z,70
2019-06-10T08:15:28.499Z,70
2019-06-10T08:18:04.510Z,70
2019-06-10T08:20:37.348Z,70
2019-06-10T08:23:13.025Z,70
2019-06-10T08:25:57.548Z,70
2019-06-10T08:28:26.357Z,70
2019-06-10T08:30:58.732Z,70
2019-06-10T08:33:33.582Z,70
2019-06-10T08:36:06.681Z,70
2019-06-10T08:38:42.791Z,69
2019-06-10T08:41:22.430Z,69
2019-06-10T08:43:55.697Z,69
2019-06-10T08:46:28.144Z,68
2019-06-10T08:49:02.637Z,68
2019-06-10T08:51:36.895Z,66
2019-06-10T08:54:09.561Z,66
2019-06-10T08:56:53.911Z,65
2019-06-10T08:59:23.611Z,64
2019-06-10T09:01:57.546Z,64
2019-06-10T09:04:33.413Z,64
2019-06-10T09:07:05.741Z,63
2019-06-10T09:09:43.077Z,63
2019-06-10T09:12:36.843Z,63
2019-06-10T09:14:59.900Z,63
2019-06-10T09:17:35.657Z,61
2019-06-10T09:20:08.530Z,62
2019-06-10T09:23:00.203Z,62
2019-06-10T09:25:23.021Z,60
2019-06-10T09:27:55.266Z,58
2019-06-10T09:31:25.523Z,58
2019-06-10T09:33:57.883Z,56
2019-06-10T09:36:32.826Z,57
2019-06-10T09:39:05.149Z,54
2019-06-10T09:41:59.930Z,54
2019-06-10T09:44:18.438Z,54
2019-06-10T09:47:03.144Z,54
2019-06-10T09:49:33.854Z,52
2019-06-10T09:52:06.279Z,52
2019-06-10T09:54:40.672Z,50
2019-06-10T09:57:19.701Z,48
2019-06-10T09:59:57.003Z,48
2019-06-10T10:02:29.616Z,48
2019-06-10T10:05:03.151Z,49
2019-06-10T10:07:35.986Z,51
2019-06-10T10:10:08.775Z,50
2019-06-10T10:12:49.047Z,50
2019-06-10T10:15:34.714Z,51
2019-06-10T10:18:03.170Z,51
2019-06-10T10:20:35.545Z,51
2019-06-10T10:23:08.206Z,55
2019-06-10T10:25:49.568Z,55
2019-06-10T10:28:26.761Z,50
2019-06-10T10:30:59.153Z,50
2019-06-10T10:33:33.791Z,49
2019-06-10T10:36:06.101Z,49
2019-06-10T10:38:38.656Z,50
2019-06-10T10:41:13.919Z,50
2019-06-10T10:43:55.982Z,50
2019-06-10T10:46:26.611Z,49
2019-06-10T10:48:58.441Z,49
2019-06-10T10:51:32.970Z,49
2019-06-10T10:54:36.589Z,47
2019-06-10T10:56:55.213Z,47
2019-06-10T10:59:25.652Z,47
2019-06-10T11:01:57.363Z,47
2019-06-10T11:04:29.291Z,47
2019-06-10T11:07:01.584Z,45
2019-06-10T11:09:33.624Z,45
2019-06-10T11:12:05.837Z,45
2019-06-10T11:14:37.674Z,45
2019-06-10T11:17:09.325Z,45
2019-06-10T11:19:41.136Z,45
2019-06-10T11:22:13.025Z,46
2019-06-10T11:24:50.547Z,46
2019-06-10T11:27:25.317Z,45
2019-06-10T11:29:59.498Z,45
2019-06-10T11:31:26.075Z,45
2019-06-10T11:33:59.800Z,45
2019-06-10T11:36:33.835Z,45
2019-06-10T11:39:07.692Z,45
2019-06-10T11:41:44.028Z,45
2019-06-10T11:44:16.263Z,45
2019-06-10T11:46:48.964Z,45
2019-06-10T11:49:24.188Z,45
2019-06-10T11:51:59.886Z,45
2019-06-10T11:55:03.310Z,44
2019-06-10T11:57:13.581Z,45
2019-06-10T11:59:46.257Z,45
2019-06-10T12:02:18.814Z,45
2019-06-10T12:04:57.055Z,45
2019-06-10T12:07:33.620Z,43
2019-06-10T12:10:06.049Z,43
2019-06-10T12:12:38.557Z,43
2019-06-10T12:15:12.610Z,43
2019-06-10T12:18:04.903Z,43
2019-06-10T12:20:28.893Z,43
2019-06-10T12:23:04.884Z,45
2019-06-10T12:25:40.159Z,45
2019-06-10T12:28:15.320Z,45
2019-06-10T12:30:47.716Z,45
2019-06-10T12:33:25.718Z,45
2019-06-10T12:36:07.023Z,45
2019-06-10T12:38:39.337Z,45
2019-06-10T12:41:14.485Z,45
2019-06-10T12:43:47.108Z,46
2019-06-10T12:46:19.932Z,46
2019-06-10T12:49:01.958Z,47
2019-06-10T12:51:33.312Z,47
2019-06-10T12:54:06.937Z,47
2019-06-10T12:56:39.274Z,48
2019-06-10T12:59:14.459Z,48
2019-06-10T13:01:47.274Z,48
2019-06-10T13:04:19.881Z,48
2019-06-10T13:06:53.008Z,49
2019-06-10T13:09:25.398Z,49
2019-06-10T13:11:58.246Z,49
2019-06-10T13:14:33.025Z,49
2019-06-10T13:17:06.197Z,49
2019-06-10T13:19:38.621Z,49
2019-06-10T13:22:12.971Z,49
2019-06-10T13:24:45.411Z,49
2019-06-10T13:27:17.735Z,49
2019-06-10T13:29:50.203Z,49
2019-06-10T13:31:26.552Z,49
2019-06-10T13:34:13.833Z,49
2019-06-10T13:36:43.135Z,50
2019-06-10T13:39:17.017Z,50
2019-06-10T13:41:53.495Z,50
2019-06-10T13:44:27.394Z,50
2019-06-10T13:47:11.485Z,51
2019-06-10T13:49:44.169Z,51
2019-06-10T13:52:17.387Z,51
2019-06-10T13:54:52.945Z,51
2019-06-10T13:57:25.364Z,52
2019-06-10T13:59:57.639Z,52
2019-06-10T14:02:32.755Z,52
2019-06-10T14:05:18.383Z,52
2019-06-10T14:07:46.654Z,59
2019-06-10T14:10:19.757Z,59
2019-06-10T14:12:54.770Z,59
2019-06-10T14:15:27.545Z,59
2019-06-10T14:18:05.764Z,56
2019-06-10T14:20:44.423Z,56
2019-06-10T14:23:18.693Z,54
2019-06-10T14:25:53.725Z,54
2019-06-10T14:28:44.193Z,51
2019-06-10T14:31:44.898Z,51
2019-06-10T14:33:48.212Z,47
2019-06-10T14:36:22.564Z,47
2019-06-10T14:38:54.910Z,45
2019-06-10T14:41:27.224Z,45
2019-06-10T14:43:59.784Z,40
2019-06-10T14:46:33.361Z,39
2019-06-10T14:49:07.135Z,39
2019-06-10T14:51:43.559Z,39
2019-06-10T14:54:18.664Z,39
2019-06-10T14:56:57.714Z,38
2019-06-10T14:59:30.193Z,38
2019-06-10T15:02:03.293Z,38
2019-06-10T15:04:35.780Z,37
2019-06-10T15:07:09.719Z,36
2019-06-10T15:09:43.862Z,36
2019-06-10T15:12:17.795Z,37
2019-06-10T15:14:52.542Z,37
2019-06-10T15:17:25.436Z,37
2019-06-10T15:19:58.079Z,37
2019-06-10T15:22:33.293Z,37
2019-06-10T15:25:05.837Z,37
2019-06-10T15:27:38.191Z,35
2019-06-10T15:31:25.709Z,35
2019-06-10T15:33:59.632Z,36
2019-06-10T15:36:33.640Z,36
2019-06-10T15:39:08.748Z,34
2019-06-10T15:41:43.306Z,34
2019-06-10T15:44:48.163Z,35
2019-06-10T15:46:56.794Z,35
2019-06-10T15:49:29.357Z,35
2019-06-10T15:52:03.760Z,35
2019-06-10T15:54:36.359Z,35
2019-06-10T15:57:43.653Z,35
2019-06-10T15:59:52.282Z,35
2019-06-10T16:02:25.979Z,35
2019-06-10T16:04:58.412Z,35
2019-06-10T16:07:32.883Z,35
2019-06-10T16:10:05.811Z,35
2019-06-10T16:12:38.327Z,35
2019-06-10T16:15:15.836Z,35
2019-06-10T16:17:54.011Z,36
2019-06-10T16:20:26.282Z,36
2019-06-10T16:22:58.925Z,36
2019-06-10T16:25:31.800Z,36
2019-06-10T16:28:05.009Z,38
2019-06-10T16:30:37.390Z,38
2019-06-10T16:33:12.509Z,38
2019-06-10T16:35:46.951Z,38
2019-06-10T16:38:22.330Z,39
2019-06-10T16:40:59.545Z,39
2019-06-10T16:43:34.000Z,39
2019-06-10T16:46:06.363Z,39
2019-06-10T16:48:38.856Z,40
2019-06-10T16:51:13.758Z,40
2019-06-10T16:53:46.421Z,40
2019-06-10T16:56:20.034Z,40
2019-06-10T16:58:52.775Z,40
2019-06-10T17:01:30.300Z,40
2019-06-10T17:04:05.614Z,40
2019-06-10T17:06:37.933Z,40
2019-06-10T17:09:10.190Z,40
2019-06-10T17:11:43.158Z,40
2019-06-10T17:14:15.492Z,40
2019-06-10T17:16:47.717Z,42
2019-06-10T17:19:28.528Z,42
2019-06-10T17:22:01.009Z,42
2019-06-10T17:24:34.334Z,42
2019-06-10T17:27:06.809Z,42
2019-06-10T17:29:39.177Z,42
2019-06-10T17:31:35.013Z,42
2019-06-10T17:34:09.256Z,42
2019-06-10T17:36:43.175Z,42
2019-06-10T17:39:17.032Z,42
2019-06-10T17:41:51.354Z,42
2019-06-10T17:44:32.363Z,42
2019-06-10T17:47:06.601Z,41
2019-06-10T17:49:42.341Z,41
2019-06-10T17:52:16.450Z,41
2019-06-10T17:54:52.820Z,41
2019-06-10T17:57:33.945Z,41
2019-06-10T18:00:15.305Z,41
2019-06-10T18:02:49.268Z,41
2019-06-10T18:05:25.494Z,41
2019-06-10T18:08:02.754Z,41
2019-06-10T18:10:36.683Z,41
2019-06-10T18:13:17.097Z,41
2019-06-10T18:15:53.877Z,41
2019-06-10T18:18:28.734Z,41
2019-06-10T18:21:04.165Z,41
2019-06-10T18:23:38.159Z,41
2019-06-10T18:26:12.801Z,41
2019-06-10T18:29:09.113Z,41
2019-06-10T18:31:34.990Z,41
2019-06-10T18:34:13.512Z,41
2019-06-10T18:36:47.493Z,40
2019-06-10T18:39:23.281Z,40
2019-06-10T18:41:57.090Z,40
2019-06-10T18:44:37.523Z,40
2019-06-10T18:47:13.831Z,40
2019-06-10T18:49:46.278Z,40
2019-06-10T18:52:18.731Z,39
2019-06-10T18:54:53.292Z,39
2019-06-10T18:57:25.535Z,40
2019-06-10T18:59:58.232Z,40
2019-06-10T19:02:30.777Z,40
2019-06-10T19:05:04.711Z,40
2019-06-10T19:07:42.346Z,39
2019-06-10T19:10:18.137Z,39
2019-06-10T19:12:52.986Z,39
2019-06-10T19:15:25.927Z,39
2019-06-10T19:17:58.510Z,38
2019-06-10T19:20:40.161Z,38
2019-06-10T19:23:16.795Z,38
2019-06-10T19:25:49.207Z,38
2019-06-10T19:28:24.298Z,38
2019-06-10T19:31:25.991Z,38
2019-06-10T19:33:58.524Z,38
2019-06-10T19:36:31.862Z,38
2019-06-10T19:39:05.638Z,38
2019-06-10T19:41:47.138Z,38
2019-06-10T19:44:19.065Z,38
2019-06-10T19:46:52.585Z,38
2019-06-10T19:49:25.869Z,38
2019-06-10T19:52:03.550Z,38
2019-06-10T19:54:37.151Z,37
2019-06-10T19:57:10.023Z,37
2019-06-10T20:00:12.604Z,37
2019-06-10T20:02:26.180Z,37
2019-06-10T20:04:58.486Z,37
2019-06-10T20:07:31.028Z,35
2019-06-10T20:10:03.418Z,35
2019-06-10T20:12:36.611Z,35
2019-06-10T20:15:10.524Z,35
2019-06-10T20:17:45.786Z,35
2019-06-10T20:20:18.619Z,35
2019-06-10T20:22:57.750Z,36
2019-06-10T20:25:30.215Z,36
2019-06-10T20:28:05.385Z,37
2019-06-10T20:30:39.104Z,37
2019-06-10T20:33:13.866Z,38
2019-06-10T20:35:47.309Z,38
2019-06-10T20:38:22.612Z,38
2019-06-10T20:40:55.044Z,38
2019-06-10T20:43:27.816Z,39
2019-06-10T20:46:06.392Z,39
2019-06-10T20:48:40.463Z,38
2019-06-10T20:51:19.896Z,38
2019-06-10T20:53:59.105Z,37
2019-06-10T20:56:34.071Z,37
2019-06-10T20:59:06.414Z,37
2019-06-10T21:01:39.256Z,37
2019-06-10T21:04:19.633Z,38
2019-06-10T21:06:53.531Z,38
2019-06-10T21:09:26.163Z,38
2019-06-10T21:11:58.446Z,38
2019-06-10T21:14:33.470Z,38
2019-06-10T21:17:06.178Z,38
2019-06-10T21:19:46.111Z,38
2019-06-10T21:22:20.153Z,38
2019-06-10T21:24:53.977Z,38
2019-06-10T21:27:26.668Z,39
2019-06-10T21:29:59.193Z,39
2019-06-10T21:31:32.749Z,39
2019-06-10T21:34:06.999Z,40
2019-06-10T21:36:41.600Z,40
2019-06-10T21:39:16.872Z,40
2019-06-10T21:41:54.920Z,40
2019-06-10T21:44:29.058Z,41
2019-06-10T21:47:03.025Z,41
2019-06-10T21:49:36.951Z,41
2019-06-10T21:52:13.327Z,41
2019-06-10T21:54:47.067Z,41
2019-06-10T21:57:22.526Z,41
2019-06-10T21:59:55.741Z,41
2019-06-10T22:02:27.938Z,41
2019-06-10T22:04:59.889Z,41
2019-06-10T22:07:34.763Z,41
2019-06-10T22:10:07.079Z,41
2019-06-10T22:12:38.937Z,41
2019-06-10T22:15:12.928Z,41
2019-06-10T22:17:44.864Z,41
2019-06-10T22:20:17.732Z,41
2019-06-10T22:22:56.282Z,40
2019-06-10T22:25:28.641Z,40
2019-06-10T22:28:03.129Z,39
2019-06-10T22:30:34.775Z,39
2019-06-10T22:33:06.547Z,39
2019-06-10T22:35:38.183Z,39
2019-06-10T22:38:10.089Z,39
2019-06-10T22:40:45.093Z,39
2019-06-10T22:43:17.033Z,39
2019-06-10T22:45:51.891Z,39
2019-06-10T22:48:29.233Z,39
2019-06-10T22:51:01.028Z,39
2019-06-10T22:53:33.781Z,39
2019-06-10T22:56:05.900Z,40
2019-06-10T22:58:38.386Z,40
2019-06-10T23:01:12.789Z,40
2019-06-10T23:03:44.739Z,40
2019-06-10T23:06:16.927Z,41
2019-06-10T23:08:48.588Z,41
2019-06-10T23:11:20.633Z,41
2019-06-10T23:13:57.789Z,41
2019-06-10T23:16:31.143Z,41
2019-06-10T23:19:03.457Z,40
2019-06-10T23:21:35.241Z,40
2019-06-10T23:24:07.038Z,40
2019-06-10T23:26:39.563Z,40
2019-06-10T23:29:14.454Z,40
2019-06-10T23:31:26.417Z,40
2019-06-10T23:34:02.606Z,40
2019-06-10T23:36:37.439Z,40
2019-06-10T23:39:13.513Z,40
2019-06-10T23:41:48.318Z,40
2019-06-10T23:44:23.336Z,40
2019-06-10T23:46:57.763Z,39
2019-06-10T23:49:33.791Z,39
2019-06-10T23:52:08.199Z,39
2019-06-10T23:54:42.028Z,39
2019-06-10T23:57:16.154Z,39
2019-06-10T23:59:55.288Z,39
